createdAt,value
2019-02-18T00:02:04.138Z,79.40
2019-02-18T00:04:34.618Z,79.13
2019-02-18T00:07:03.455Z,79.56
2019-02-18T00:09:32.356Z,79.03
2019-02-18T00:12:01.293Z,80.56
2019-02-18T00:14:30.291Z,79.71
2019-02-18T00:16:59.532Z,79.49
2019-02-18T00:19:29.494Z,80.64
2019-02-18T00:21:58.464Z,80.41
2019-02-18T00:24:27.903Z,81.01
2019-02-18T00:26:57.277Z,80.40
2019-02-18T00:29:26.816Z,81.15
2019-02-18T00:31:57.664Z,81.67
2019-02-18T00:34:29.807Z,80.51
2019-02-18T00:36:58.741Z,79.96
2019-02-18T00:39:28.035Z,80.33
2019-02-18T00:41:56.971Z,80.14
2019-02-18T00:44:25.861Z,80.01
2019-02-18T00:46:55.432Z,79.83
2019-02-18T00:49:26.144Z,79.87
2019-02-18T00:51:54.993Z,80.02
2019-02-18T00:54:25.438Z,80.47
2019-02-18T00:56:54.356Z,80.11
2019-02-18T00:59:23.415Z,80.77
2019-02-18T01:01:52.296Z,80.95
2019-02-18T01:04:24.655Z,80.07
2019-02-18T01:17:41.119Z,82.21
2019-02-18T01:20:10.720Z,82.09
2019-02-18T01:22:39.557Z,82.02
2019-02-18T01:25:10.150Z,82.78
2019-02-18T01:27:39.142Z,82.16
2019-02-18T01:30:10.910Z,82.01
2019-02-18T01:32:39.809Z,81.84
2019-02-18T01:35:09.363Z,83.85
2019-02-18T01:37:45.248Z,82.72
2019-02-18T01:40:11.690Z,86.15
2019-02-18T01:42:40.622Z,84.07
2019-02-18T01:45:11.141Z,84.19
2019-02-18T01:47:39.940Z,85.23
2019-02-18T01:50:13.613Z,85.10
2019-02-18T01:52:42.659Z,84.92
2019-02-18T01:55:12.717Z,83.51
2019-02-18T01:57:41.631Z,83.08
2019-02-18T02:00:13.193Z,82.55
2019-02-18T02:02:42.240Z,82.77
2019-02-18T02:05:12.968Z,82.13
2019-02-18T02:07:42.241Z,82.46
2019-02-18T02:10:12.717Z,82.87
2019-02-18T02:12:41.979Z,83.03
2019-02-18T02:15:20.229Z,85.62
2019-02-18T02:17:49.241Z,83.92
2019-02-18T02:20:18.054Z,84.41
2019-02-18T02:22:46.994Z,84.00
2019-02-18T02:25:16.151Z,84.24
2019-02-18T02:27:45.079Z,83.64
2019-02-18T02:30:13.998Z,83.38
2019-02-18T02:32:42.998Z,83.36
2019-02-18T02:35:12.293Z,83.92
2019-02-18T02:37:41.665Z,85.29
2019-02-18T02:40:10.660Z,85.22
2019-02-18T02:42:39.495Z,84.56
2019-02-18T02:45:08.494Z,83.87
2019-02-18T02:47:38.434Z,83.61
2019-02-18T02:50:08.133Z,83.62
2019-02-18T02:52:37.074Z,83.05
2019-02-18T02:55:06.049Z,83.54
2019-02-18T02:57:34.962Z,85.34
2019-02-18T03:00:05.465Z,84.21
2019-02-18T03:02:34.429Z,86.09
2019-02-18T03:05:03.730Z,87.11
2019-02-18T03:07:32.579Z,85.91
2019-02-18T03:10:01.387Z,86.85
2019-02-18T03:12:30.282Z,86.27
2019-02-18T03:14:59.303Z,87.18
2019-02-18T03:17:28.120Z,86.95
2019-02-18T03:19:57.061Z,85.51
2019-02-18T03:22:26.656Z,84.55
2019-02-18T03:25:23.809Z,84.50
2019-02-18T03:28:19.363Z,84.85
2019-02-18T03:31:09.313Z,86.20
2019-02-18T03:33:44.735Z,85.15
2019-02-18T03:36:13.545Z,84.25
2019-02-18T03:38:42.351Z,84.33
2019-02-18T03:41:11.953Z,85.13
2019-02-18T03:43:41.154Z,84.92
2019-02-18T03:46:10.222Z,83.69
2019-02-18T03:48:39.100Z,83.23
2019-02-18T03:51:08.073Z,83.98
2019-02-18T03:53:36.923Z,82.95
2019-02-18T03:56:05.851Z,83.40
2019-02-18T03:58:34.754Z,83.10
2019-02-18T04:01:03.733Z,82.78
2019-02-18T04:03:32.697Z,84.60
2019-02-18T04:06:01.500Z,83.80
2019-02-18T04:08:42.050Z,83.45
2019-02-18T04:11:01.489Z,83.52
2019-02-18T04:13:30.707Z,83.32
2019-02-18T04:15:59.853Z,82.33
2019-02-18T04:18:28.658Z,82.94
2019-02-18T04:20:57.554Z,83.25
2019-02-18T04:23:26.593Z,82.80
2019-02-18T04:25:56.036Z,85.85
2019-02-18T04:28:24.871Z,84.08
2019-02-18T04:30:54.148Z,85.51
2019-02-18T04:33:22.954Z,85.06
2019-02-18T04:35:51.782Z,83.91
2019-02-18T04:38:20.646Z,83.87
2019-02-18T04:40:49.467Z,83.41
2019-02-18T04:43:18.347Z,83.01
2019-02-18T04:45:47.411Z,82.66
2019-02-18T04:48:16.220Z,84.90
2019-02-18T04:50:45.058Z,83.85
2019-02-18T04:53:13.915Z,83.33
2019-02-18T04:55:43.145Z,83.94
2019-02-18T04:58:12.083Z,83.23
2019-02-18T05:00:41.232Z,82.87
2019-02-18T05:03:10.060Z,82.74
2019-02-18T05:05:38.977Z,85.43
2019-02-18T05:08:07.924Z,83.84
2019-02-18T05:10:36.822Z,83.69
2019-02-18T05:13:05.739Z,86.57
2019-02-18T05:15:34.775Z,84.66
2019-02-18T05:18:03.621Z,84.14
2019-02-18T05:20:32.403Z,84.09
2019-02-18T05:23:01.521Z,83.31
2019-02-18T05:25:30.496Z,83.38
2019-02-18T05:27:59.585Z,83.26
2019-02-18T05:30:29.551Z,84.05
2019-02-18T05:32:58.436Z,83.74
2019-02-18T05:35:27.367Z,84.19
2019-02-18T05:37:56.185Z,84.62
2019-02-18T05:40:25.050Z,83.46
2019-02-18T05:42:53.965Z,85.23
2019-02-18T05:45:24.216Z,84.50
2019-02-18T05:47:53.748Z,84.20
2019-02-18T05:50:22.843Z,84.27
2019-02-18T05:52:51.827Z,84.01
2019-02-18T05:55:21.145Z,84.11
2019-02-18T05:57:56.389Z,84.31
2019-02-18T06:00:25.331Z,84.05
2019-02-18T06:02:54.838Z,86.44
2019-02-18T06:05:23.893Z,85.37
2019-02-18T06:07:54.791Z,84.10
2019-02-18T06:10:23.749Z,84.01
2019-02-18T06:12:52.567Z,83.85
2019-02-18T06:15:21.447Z,85.07
2019-02-18T06:17:50.908Z,85.35
2019-02-18T06:20:19.917Z,84.27
2019-02-18T06:22:48.840Z,84.68
2019-02-18T06:25:17.870Z,85.31
2019-02-18T06:27:46.830Z,84.21
2019-02-18T06:30:15.640Z,84.59
2019-02-18T06:32:44.555Z,84.93
2019-02-18T06:35:14.640Z,84.66
2019-02-18T06:37:43.555Z,86.27
2019-02-18T06:40:12.642Z,84.66
2019-02-18T06:43:18.415Z,84.61
2019-02-18T06:45:53.467Z,85.05
2019-02-18T06:48:28.582Z,84.42
2019-02-18T06:51:00.935Z,84.26
2019-02-18T06:53:33.787Z,84.15
2019-02-18T06:56:03.025Z,84.07
2019-02-18T06:59:00.152Z,85.28
2019-02-18T07:01:51.188Z,85.75
2019-02-18T07:04:35.634Z,86.39
2019-02-18T07:07:12.897Z,85.58
2019-02-18T07:09:51.636Z,86.70
2019-02-18T07:12:32.311Z,85.51
2019-02-18T07:15:01.407Z,85.50
2019-02-18T07:17:30.552Z,85.90
2019-02-18T07:19:59.386Z,86.51
2019-02-18T07:22:29.683Z,87.43
2019-02-18T07:24:58.505Z,87.70
2019-02-18T07:27:31.928Z,86.22
2019-02-18T07:30:02.112Z,86.21
2019-02-18T07:32:30.917Z,85.00
2019-02-18T07:34:59.870Z,86.35
2019-02-18T07:37:28.683Z,86.01
2019-02-18T07:40:01.471Z,85.52
2019-02-18T07:42:34.697Z,85.43
2019-02-18T07:45:02.106Z,85.20
2019-02-18T07:47:31.204Z,86.05
2019-02-18T07:50:00.599Z,86.14
2019-02-18T07:52:29.837Z,86.02
2019-02-18T07:54:58.816Z,85.72
2019-02-18T07:57:28.089Z,85.42
2019-02-18T07:59:57.074Z,85.27
2019-02-18T08:02:26.703Z,84.82
2019-02-18T08:04:55.621Z,84.71
2019-02-18T08:07:24.672Z,83.80
2019-02-18T08:09:53.613Z,84.11
2019-02-18T08:12:23.052Z,83.23
2019-02-18T08:14:52.043Z,82.58
2019-02-18T08:17:21.090Z,82.09
2019-02-18T08:19:51.214Z,81.81
2019-02-18T08:22:20.082Z,81.73
2019-02-18T08:24:49.318Z,81.39
2019-02-18T08:27:18.149Z,81.07
2019-02-18T08:29:47.229Z,80.15
2019-02-18T08:32:16.059Z,78.52
2019-02-18T08:34:45.082Z,78.18
2019-02-18T08:37:14.475Z,77.54
2019-02-18T08:39:44.393Z,76.46
2019-02-18T08:42:13.935Z,76.91
2019-02-18T08:44:43.175Z,76.25
2019-02-18T08:47:12.677Z,75.01
2019-02-18T08:49:41.526Z,75.14
2019-02-18T08:52:11.154Z,75.22
2019-02-18T08:54:40.307Z,75.22
2019-02-18T08:57:09.679Z,74.27
2019-02-18T08:59:38.861Z,73.56
2019-02-18T09:02:09.238Z,70.85
2019-02-18T09:04:38.788Z,70.14
2019-02-18T09:07:07.674Z,69.98
2019-02-18T09:09:36.929Z,70.01
2019-02-18T09:12:06.125Z,69.75
2019-02-18T09:14:34.898Z,69.42
2019-02-18T09:17:05.611Z,67.85
2019-02-18T09:19:35.517Z,68.60
2019-02-18T09:22:23.738Z,67.82
2019-02-18T09:24:59.250Z,66.17
2019-02-18T09:27:28.086Z,66.46
2019-02-18T09:29:56.986Z,65.38
2019-02-18T09:32:25.899Z,65.01
2019-02-18T09:35:01.758Z,65.12
2019-02-18T09:37:26.003Z,64.17
2019-02-18T09:39:55.153Z,64.12
2019-02-18T09:42:26.502Z,63.47
2019-02-18T09:44:54.965Z,63.23
2019-02-18T09:47:24.147Z,61.96
2019-02-18T09:49:53.270Z,61.60
2019-02-18T09:52:22.358Z,61.99
2019-02-18T09:54:51.400Z,61.36
2019-02-18T09:57:20.458Z,61.24
2019-02-18T09:59:49.463Z,60.30
2019-02-18T10:02:18.482Z,59.79
2019-02-18T10:04:47.269Z,59.55
2019-02-18T10:07:16.121Z,59.18
2019-02-18T10:09:44.917Z,59.26
2019-02-18T10:12:18.241Z,58.93
2019-02-18T10:14:45.818Z,58.63
2019-02-18T10:17:14.663Z,58.07
2019-02-18T10:19:43.457Z,58.13
2019-02-18T10:22:12.273Z,57.59
2019-02-18T10:24:50.712Z,57.12
2019-02-18T10:27:12.134Z,57.24
2019-02-18T10:29:41.043Z,57.91
2019-02-18T10:32:10.405Z,57.26
2019-02-18T10:34:39.527Z,57.25
2019-02-18T10:37:09.954Z,56.76
2019-02-18T10:39:38.773Z,56.80
2019-02-18T10:42:08.049Z,56.31
2019-02-18T10:44:36.986Z,56.47
2019-02-18T10:47:08.074Z,56.05
2019-02-18T10:49:37.077Z,54.60
2019-02-18T10:52:06.881Z,54.75
2019-02-18T10:54:36.454Z,54.86
2019-02-18T10:57:05.767Z,55.44
2019-02-18T10:59:35.000Z,55.07
2019-02-18T11:02:04.276Z,54.69
2019-02-18T11:04:33.539Z,54.18
2019-02-18T11:07:02.565Z,54.76
2019-02-18T11:09:31.358Z,54.41
2019-02-18T11:12:00.189Z,54.30
2019-02-18T11:14:29.131Z,54.49
2019-02-18T11:16:58.342Z,53.29
2019-02-18T11:19:27.149Z,53.85
2019-02-18T11:21:56.435Z,53.16
2019-02-18T11:24:25.565Z,53.20
2019-02-18T11:26:54.990Z,52.74
2019-02-18T11:29:24.201Z,53.45
2019-02-18T11:31:53.577Z,54.05
2019-02-18T11:34:22.510Z,53.71
2019-02-18T11:36:51.562Z,53.77
2019-02-18T11:39:20.661Z,52.89
2019-02-18T11:41:49.518Z,52.62
2019-02-18T11:44:18.886Z,52.68
2019-02-18T11:46:47.740Z,53.18
2019-02-18T11:49:16.613Z,53.46
2019-02-18T11:51:45.439Z,52.81
2019-02-18T11:54:14.252Z,52.17
2019-02-18T11:56:43.570Z,53.03
2019-02-18T11:59:12.603Z,52.43
2019-02-18T12:01:41.850Z,52.28
2019-02-18T12:04:11.131Z,51.66
2019-02-18T12:06:41.657Z,51.82
2019-02-18T12:09:17.745Z,51.39
2019-02-18T12:11:45.715Z,51.29
2019-02-18T12:14:14.670Z,50.62
2019-02-18T12:16:43.557Z,50.90
2019-02-18T12:19:12.480Z,50.29
2019-02-18T12:21:41.296Z,50.58
2019-02-18T12:24:10.102Z,50.31
2019-02-18T12:26:39.105Z,48.93
2019-02-18T12:29:07.934Z,50.06
2019-02-18T12:31:36.769Z,49.16
2019-02-18T12:34:05.586Z,49.32
2019-02-18T12:36:37.867Z,49.04
2019-02-18T12:39:13.401Z,49.03
2019-02-18T12:41:48.681Z,49.48
2019-02-18T12:44:14.257Z,48.12
2019-02-18T12:46:43.119Z,48.35
2019-02-18T12:49:12.109Z,48.36
2019-02-18T12:51:42.680Z,48.17
2019-02-18T12:54:11.723Z,47.64
2019-02-18T12:56:41.253Z,47.72
2019-02-18T12:59:10.328Z,47.16
2019-02-18T13:01:39.853Z,47.16
2019-02-18T13:04:08.886Z,46.96
2019-02-18T13:06:37.914Z,47.55
2019-02-18T13:09:07.522Z,46.45
2019-02-18T13:11:36.784Z,46.95
2019-02-18T13:14:05.804Z,45.37
2019-02-18T13:16:35.478Z,45.31
2019-02-18T13:19:04.501Z,45.19
2019-02-18T13:21:33.607Z,44.97
2019-02-18T13:24:02.613Z,45.00
2019-02-18T13:26:31.516Z,43.97
2019-02-18T13:29:00.338Z,44.29
2019-02-18T13:31:29.232Z,44.13
2019-02-18T13:33:58.177Z,44.04
2019-02-18T13:36:28.755Z,44.01
2019-02-18T13:38:59.329Z,43.65
2019-02-18T13:41:28.515Z,43.26
2019-02-18T13:43:57.475Z,42.86
2019-02-18T13:46:27.579Z,43.09
2019-02-18T13:48:56.837Z,42.67
2019-02-18T13:51:25.734Z,42.29
2019-02-18T13:53:55.171Z,42.17
2019-02-18T13:56:24.470Z,41.96
2019-02-18T13:58:53.769Z,41.99
2019-02-18T14:01:23.063Z,40.47
2019-02-18T14:03:52.252Z,39.83
2019-02-18T14:06:21.126Z,40.56
2019-02-18T14:08:50.012Z,41.84
2019-02-18T14:11:18.904Z,41.96
2019-02-18T14:13:48.644Z,41.11
2019-02-18T14:16:17.877Z,40.39
2019-02-18T14:18:47.074Z,41.10
2019-02-18T14:21:16.379Z,39.84
2019-02-18T14:23:45.303Z,40.75
2019-02-18T14:26:14.354Z,40.11
2019-02-18T14:28:43.667Z,40.00
2019-02-18T14:31:12.683Z,39.51
2019-02-18T14:33:41.671Z,38.71
2019-02-18T14:36:11.091Z,39.52
2019-02-18T14:38:43.572Z,39.51
2019-02-18T14:41:15.306Z,40.31
2019-02-18T14:43:44.301Z,40.01
2019-02-18T14:46:19.663Z,42.11
2019-02-18T14:48:50.209Z,41.37
2019-02-18T14:51:19.725Z,41.09
2019-02-18T14:53:49.186Z,40.93
2019-02-18T14:56:18.347Z,40.63
2019-02-18T14:58:47.155Z,41.98
2019-02-18T15:01:16.646Z,41.98
2019-02-18T15:03:45.529Z,42.73
2019-02-18T15:06:15.557Z,41.72
2019-02-18T15:08:44.347Z,42.83
2019-02-18T15:11:13.468Z,42.77
2019-02-18T15:13:42.366Z,42.61
2019-02-18T15:16:11.689Z,42.93
2019-02-18T15:18:41.446Z,42.47
2019-02-18T15:21:11.019Z,42.85
2019-02-18T15:23:39.915Z,43.88
2019-02-18T15:26:09.216Z,44.24
2019-02-18T15:28:38.083Z,44.00
2019-02-18T15:31:08.958Z,44.44
2019-02-18T15:33:37.784Z,43.47
2019-02-18T15:36:06.774Z,43.68
2019-02-18T15:38:36.019Z,43.69
2019-02-18T15:41:05.196Z,43.43
2019-02-18T15:43:35.326Z,42.91
2019-02-18T15:46:04.857Z,43.15
2019-02-18T15:48:33.892Z,42.82
2019-02-18T15:51:02.777Z,43.94
2019-02-18T15:53:31.762Z,43.71
2019-02-18T15:56:00.869Z,43.76
2019-02-18T15:58:29.756Z,44.31
2019-02-18T16:00:59.392Z,44.13
2019-02-18T16:03:28.374Z,44.12
2019-02-18T16:05:58.334Z,44.92
2019-02-18T16:08:27.279Z,45.70
2019-02-18T16:10:56.106Z,44.89
2019-02-18T16:13:27.019Z,44.99
2019-02-18T16:15:56.130Z,45.09
2019-02-18T16:18:24.929Z,45.73
2019-02-18T16:20:53.730Z,45.88
2019-02-18T16:23:23.073Z,45.96
2019-02-18T16:25:52.670Z,46.30
2019-02-18T16:28:21.508Z,46.19
2019-02-18T16:30:50.482Z,46.51
2019-02-18T16:33:20.211Z,47.97
2019-02-18T16:35:50.459Z,47.69
2019-02-18T16:38:19.596Z,48.30
2019-02-18T16:40:49.524Z,48.09
2019-02-18T16:43:18.573Z,48.60
2019-02-18T16:45:49.468Z,49.88
2019-02-18T16:48:18.933Z,50.86
2019-02-18T16:50:48.146Z,52.49
2019-02-18T16:53:17.740Z,52.53
2019-02-18T16:55:47.154Z,53.28
2019-02-18T16:58:16.887Z,53.87
2019-02-18T17:00:45.888Z,54.33
2019-02-18T17:03:15.067Z,55.31
2019-02-18T17:05:44.006Z,54.84
2019-02-18T17:08:13.346Z,55.25
2019-02-18T17:10:44.671Z,55.34
2019-02-18T17:13:13.506Z,55.71
2019-02-18T17:15:42.502Z,55.57
2019-02-18T17:21:40.009Z,57.75
2019-02-18T17:24:08.828Z,57.96
2019-02-18T17:26:39.270Z,59.28
2019-02-18T17:29:08.685Z,58.98
2019-02-18T17:31:37.466Z,58.75
2019-02-18T17:34:07.139Z,58.43
2019-02-18T17:36:37.646Z,59.12
2019-02-18T17:39:07.808Z,59.29
2019-02-18T17:41:37.774Z,60.01
2019-02-18T17:44:06.676Z,59.79
2019-02-18T17:46:36.696Z,59.92
2019-02-18T17:49:05.650Z,60.35
2019-02-18T17:51:34.645Z,60.52
2019-02-18T17:54:04.735Z,60.31
2019-02-18T17:56:34.360Z,60.38
2019-02-18T17:59:03.414Z,60.63
2019-02-18T18:01:32.312Z,60.77
2019-02-18T18:04:01.375Z,61.21
2019-02-18T18:06:30.943Z,61.59
2019-02-18T18:09:00.827Z,61.74
2019-02-18T18:11:30.397Z,62.20
2019-02-18T18:13:59.338Z,62.25
2019-02-18T18:16:28.357Z,62.46
2019-02-18T18:18:57.316Z,63.54
2019-02-18T18:21:26.272Z,62.81
2019-02-18T18:23:55.507Z,63.08
2019-02-18T18:26:24.638Z,64.07
2019-02-18T18:28:54.309Z,63.88
2019-02-18T18:31:23.528Z,63.89
2019-02-18T18:33:53.080Z,64.97
2019-02-18T18:36:22.765Z,64.69
2019-02-18T18:38:53.278Z,64.52
2019-02-18T18:41:22.800Z,64.31
2019-02-18T18:43:51.902Z,64.48
2019-02-18T18:46:21.330Z,64.92
2019-02-18T18:48:51.168Z,64.32
2019-02-18T18:51:20.150Z,64.36
2019-02-18T18:53:50.018Z,64.10
2019-02-18T18:56:18.804Z,65.17
2019-02-18T18:58:48.254Z,65.09
2019-02-18T19:01:17.446Z,65.57
2019-02-18T19:03:52.506Z,65.89
2019-02-18T19:06:22.425Z,65.57
2019-02-18T19:08:51.202Z,65.88
2019-02-18T19:11:20.123Z,65.69
2019-02-18T19:13:49.398Z,66.47
2019-02-18T19:16:18.579Z,66.55
2019-02-18T19:18:47.547Z,66.16
2019-02-18T19:21:17.086Z,67.84
2019-02-18T19:23:46.317Z,68.11
2019-02-18T19:26:15.957Z,67.58
2019-02-18T19:28:46.588Z,67.49
2019-02-18T19:31:15.571Z,66.80
2019-02-18T19:33:45.372Z,67.53
2019-02-18T19:37:13.937Z,68.30
2019-02-18T19:40:38.952Z,68.40
2019-02-18T19:43:22.622Z,69.08
2019-02-18T19:45:51.659Z,68.83
2019-02-18T19:48:21.129Z,69.75
2019-02-18T19:50:51.484Z,69.17
2019-02-18T19:53:21.557Z,68.71
2019-02-18T19:55:50.484Z,69.49
2019-02-18T19:58:20.846Z,69.68
2019-02-18T20:00:50.018Z,69.75
2019-02-18T20:03:18.993Z,70.33
2019-02-18T20:05:47.861Z,72.13
2019-02-18T20:08:19.763Z,70.69
2019-02-18T20:10:49.187Z,70.26
2019-02-18T20:13:19.136Z,68.77
2019-02-18T20:15:47.984Z,69.29
2019-02-18T20:18:17.062Z,69.34
2019-02-18T20:20:46.729Z,69.44
2019-02-18T20:23:16.980Z,69.91
2019-02-18T20:25:45.884Z,69.71
2019-02-18T20:28:14.721Z,70.54
2019-02-18T20:30:49.784Z,70.55
2019-02-18T20:33:18.684Z,71.69
2019-02-18T20:35:47.989Z,70.62
2019-02-18T20:38:16.864Z,71.13
2019-02-18T20:40:46.349Z,71.00
2019-02-18T20:43:16.053Z,71.14
2019-02-18T20:45:45.354Z,71.46
2019-02-18T20:48:14.437Z,72.30
2019-02-18T20:50:43.642Z,71.76
2019-02-18T20:53:12.481Z,71.50
2019-02-18T20:55:43.037Z,71.55
2019-02-18T20:58:12.026Z,73.23
2019-02-18T21:00:40.996Z,73.04
2019-02-18T21:03:10.257Z,72.87
2019-02-18T21:05:40.432Z,73.49
2019-02-18T21:08:09.245Z,73.85
2019-02-18T21:10:39.868Z,72.82
2019-02-18T21:13:09.172Z,73.38
2019-02-18T21:15:38.445Z,73.54
2019-02-18T21:18:09.265Z,74.11
2019-02-18T21:20:38.741Z,74.32
2019-02-18T21:23:08.468Z,73.54
2019-02-18T21:25:37.646Z,73.09
2019-02-18T21:28:06.914Z,72.62
2019-02-18T21:30:36.005Z,72.47
2019-02-18T21:33:05.073Z,73.22
2019-02-18T21:35:34.089Z,74.17
2019-02-18T21:38:04.408Z,75.48
2019-02-18T21:40:33.291Z,75.45
2019-02-18T21:43:02.242Z,74.20
2019-02-18T21:45:31.387Z,74.30
2019-02-18T21:48:00.823Z,73.82
2019-02-18T21:50:29.878Z,76.80
2019-02-18T21:52:58.843Z,76.20
2019-02-18T21:55:27.884Z,75.59
2019-02-18T21:57:56.779Z,75.86
2019-02-18T22:00:27.011Z,75.33
2019-02-18T22:02:56.154Z,74.56
2019-02-18T22:05:27.020Z,74.25
2019-02-18T22:07:57.371Z,76.14
2019-02-18T22:10:26.953Z,75.36
2019-02-18T22:12:56.331Z,74.89
2019-02-18T22:15:27.600Z,76.58
2019-02-18T22:17:56.829Z,75.41
2019-02-18T22:20:25.968Z,74.70
2019-02-18T22:22:54.957Z,75.51
2019-02-18T22:25:25.049Z,75.27
2019-02-18T22:27:54.090Z,79.43
2019-02-18T22:30:22.929Z,77.94
2019-02-18T22:32:52.423Z,77.50
2019-02-18T22:35:21.425Z,76.10
2019-02-18T22:37:50.266Z,77.96
2019-02-18T22:40:20.023Z,77.90
2019-02-18T22:42:49.932Z,78.02
2019-02-18T22:45:18.884Z,78.12
2019-02-18T22:47:50.114Z,77.31
2019-02-18T22:50:19.248Z,78.99
2019-02-18T22:52:50.943Z,77.52
2019-02-18T22:55:20.068Z,77.04
2019-02-18T22:57:49.257Z,77.27
2019-02-18T23:01:02.065Z,77.10
2019-02-18T23:03:31.211Z,77.77
2019-02-18T23:06:00.292Z,77.15
2019-02-18T23:08:29.459Z,78.27
2019-02-18T23:10:59.083Z,77.36
2019-02-18T23:13:29.361Z,77.32
2019-02-18T23:15:58.384Z,77.01
2019-02-18T23:18:27.911Z,77.26
2019-02-18T23:20:57.898Z,77.97
2019-02-18T23:23:27.164Z,77.77
2019-02-18T23:25:55.990Z,77.07
2019-02-18T23:28:25.056Z,77.53
2019-02-18T23:30:53.955Z,77.69
2019-02-18T23:33:23.488Z,77.22
2019-02-18T23:35:52.538Z,77.20
2019-02-18T23:38:21.478Z,77.87
2019-02-18T23:40:50.342Z,78.70
2019-02-18T23:43:19.933Z,77.64
2019-02-18T23:45:48.845Z,78.25
2019-02-18T23:48:17.940Z,78.23
2019-02-18T23:50:46.777Z,77.45
2019-02-18T23:53:16.054Z,77.61
2019-02-18T23:55:45.215Z,78.92
2019-02-18T23:58:14.410Z,78.47
